sensor_id;sensor_type;location;lat;lon;timestamp;pressure;altitude;pressure_sealevel;temperature;humidity
60719;BME280;46567;51.660;5.824;2022-12-05T00:02:27;101700.0;;;3.9;90.0
60719;BME280;46567;51.660;5.824;2022-12-05T00:07:27;101690.0;;;4.0;90.0
60719;BME280;46567;51.660;5.824;2022-12-05T00:12:27;101690.0;;;3.9;90.0
60719;BME280;46567;51.660;5.824;2022-12-05T00:17:27;101690.0;;;4.0;89.5
60719;BME280;46567;51.660;5.824;2022-12-05T00:22:27;101690.0;;;4.0;90.0
60719;BME280;46567;51.660;5.824;2022-12-05T00:27:27;101690.0;;;4.0;90.0
60719;BME280;46567;51.660;5.824;2022-12-05T00:32:27;101680.0;;;4.0;90.0
60719;BME280;46567;51.660;5.824;2022-12-05T00:37:27;101680.0;;;4.0;90.0
60719;BME280;46567;51.660;5.824;2022-12-05T00:42:27;101680.0;;;4.0;90.0
60719;BME280;46567;51.660;5.824;2022-12-05T00:47:27;101670.0;;;4.0;90.5
60719;BME280;46567;51.660;5.824;2022-12-05T00:52:27;101670.0;;;4.0;90.5
60719;BME280;46567;51.660;5.824;2022-12-05T00:57:27;101680.0;;;4.1;90.0
60719;BME280;46567;51.660;5.824;2022-12-05T01:02:27;101680.0;;;4.1;90.0
60719;BME280;46567;51.660;5.824;2022-12-05T01:07:27;101680.0;;;4.1;90.0
60719;BME280;46567;51.660;5.824;2022-12-05T01:12:27;101680.0;;;4.1;90.0
60719;BME280;46567;51.660;5.824;2022-12-05T01:17:27;101690.0;;;4.0;90.0
60719;BME280;46567;51.660;5.824;2022-12-05T01:22:27;101690.0;;;4.1;90.0
60719;BME280;46567;51.660;5.824;2022-12-05T01:27:27;101690.0;;;4.1;90.0
60719;BME280;46567;51.660;5.824;2022-12-05T01:32:27;101690.0;;;4.1;90.5
60719;BME280;46567;51.660;5.824;2022-12-05T01:37:27;101690.0;;;4.1;90.0
60719;BME280;46567;51.660;5.824;2022-12-05T01:42:27;101700.0;;;4.1;90.0
60719;BME280;46567;51.660;5.824;2022-12-05T01:47:29;101710.0;;;4.1;90.5
60719;BME280;46567;51.660;5.824;2022-12-05T01:52:31;101700.0;;;4.1;90.5
60719;BME280;46567;51.660;5.824;2022-12-05T01:57:27;101710.0;;;4.1;90.5
60719;BME280;46567;51.660;5.824;2022-12-05T02:02:28;101710.0;;;4.2;91.0
60719;BME280;46567;51.660;5.824;2022-12-05T02:07:27;101710.0;;;4.2;90.5
60719;BME280;46567;51.660;5.824;2022-12-05T02:12:27;101710.0;;;4.2;90.5
60719;BME280;46567;51.660;5.824;2022-12-05T02:18:13;101720.0;;;4.2;90.5
60719;BME280;46567;51.660;5.824;2022-12-05T02:23:53;101720.0;;;4.2;90.5
60719;BME280;46567;51.660;5.824;2022-12-05T02:30:11;101720.0;;;4.3;91.0
60719;BME280;46567;51.660;5.824;2022-12-05T02:33:33;101710.0;;;4.2;90.5
60719;BME280;46567;51.660;5.824;2022-12-05T02:37:46;101720.0;;;4.3;91.0
60719;BME280;46567;51.660;5.824;2022-12-05T02:42:43;101720.0;;;4.3;91.0
60719;BME280;46567;51.660;5.824;2022-12-05T02:47:37;101720.0;;;4.3;91.0
60719;BME280;46567;51.660;5.824;2022-12-05T02:52:28;101710.0;;;4.3;91.0
60719;BME280;46567;51.660;5.824;2022-12-05T02:57:27;101720.0;;;4.3;91.0
60719;BME280;46567;51.660;5.824;2022-12-05T03:02:30;101720.0;;;4.2;91.0
60719;BME280;46567;51.660;5.824;2022-12-05T03:07:28;101710.0;;;4.2;91.5
60719;BME280;46567;51.660;5.824;2022-12-05T03:12:30;101720.0;;;4.2;91.5
60719;BME280;46567;51.660;5.824;2022-12-05T03:17:29;101720.0;;;4.2;92.0
60719;BME280;46567;51.660;5.824;2022-12-05T03:22:39;101720.0;;;4.2;92.0
60719;BME280;46567;51.660;5.824;2022-12-05T03:27:44;101710.0;;;4.2;92.0
60719;BME280;46567;51.660;5.824;2022-12-05T03:32:40;101710.0;;;4.2;92.0
60719;BME280;46567;51.660;5.824;2022-12-05T03:37:32;101710.0;;;4.2;92.0
60719;BME280;46567;51.660;5.824;2022-12-05T03:42:34;101710.0;;;4.3;92.5
60719;BME280;46567;51.660;5.824;2022-12-05T03:47:32;101710.0;;;4.3;92.0
60719;BME280;46567;51.660;5.824;2022-12-05T03:52:38;101720.0;;;4.3;92.5
60719;BME280;46567;51.660;5.824;2022-12-05T03:57:36;101720.0;;;4.3;92.5
60719;BME280;46567;51.660;5.824;2022-12-05T04:02:49;101720.0;;;4.3;92.5
60719;BME280;46567;51.660;5.824;2022-12-05T04:17:49;101720.0;;;4.4;92.5
60719;BME280;46567;51.660;5.824;2022-12-05T04:22:27;101720.0;;;4.4;92.5
60719;BME280;46567;51.660;5.824;2022-12-05T04:27:45;101730.0;;;4.4;92.5
60719;BME280;46567;51.660;5.824;2022-12-05T04:32:30;101730.0;;;4.4;92.5
60719;BME280;46567;51.660;5.824;2022-12-05T04:37:30;101730.0;;;4.4;92.5
60719;BME280;46567;51.660;5.824;2022-12-05T04:42:31;101720.0;;;4.4;92.5
60719;BME280;46567;51.660;5.824;2022-12-05T04:52:27;101730.0;;;4.4;93.0
60719;BME280;46567;51.660;5.824;2022-12-05T04:57:30;101740.0;;;4.5;93.0
60719;BME280;46567;51.660;5.824;2022-12-05T05:02:57;101740.0;;;4.5;93.0
60719;BME280;46567;51.660;5.824;2022-12-05T05:07:27;101740.0;;;4.5;93.0
60719;BME280;46567;51.660;5.824;2022-12-05T05:12:27;101730.0;;;4.5;93.0
60719;BME280;46567;51.660;5.824;2022-12-05T05:17:27;101740.0;;;4.5;93.0
60719;BME280;46567;51.660;5.824;2022-12-05T05:22:40;101740.0;;;4.5;93.0
60719;BME280;46567;51.660;5.824;2022-12-05T05:27:27;101740.0;;;4.5;93.0
60719;BME280;46567;51.660;5.824;2022-12-05T05:32:27;101740.0;;;4.5;93.0
60719;BME280;46567;51.660;5.824;2022-12-05T05:37:27;101740.0;;;4.6;93.0
60719;BME280;46567;51.660;5.824;2022-12-05T05:42:27;101740.0;;;4.6;93.0
60719;BME280;46567;51.660;5.824;2022-12-05T05:47:27;101740.0;;;4.6;93.0
60719;BME280;46567;51.660;5.824;2022-12-05T05:52:27;101740.0;;;4.6;93.0
60719;BME280;46567;51.660;5.824;2022-12-05T05:57:27;101740.0;;;4.6;93.5
60719;BME280;46567;51.660;5.824;2022-12-05T06:02:30;101730.0;;;4.7;93.0
60719;BME280;46567;51.660;5.824;2022-12-05T06:07:27;101740.0;;;4.6;93.0
60719;BME280;46567;51.660;5.824;2022-12-05T06:12:27;101750.0;;;4.6;93.0
60719;BME280;46567;51.660;5.824;2022-12-05T06:17:27;101750.0;;;4.6;93.0
60719;BME280;46567;51.660;5.824;2022-12-05T06:22:28;101760.0;;;4.6;93.0
60719;BME280;46567;51.660;5.824;2022-12-05T06:27:29;101750.0;;;4.6;93.0
60719;BME280;46567;51.660;5.824;2022-12-05T06:32:28;101760.0;;;4.6;93.0
60719;BME280;46567;51.660;5.824;2022-12-05T06:37:27;101760.0;;;4.6;93.0
60719;BME280;46567;51.660;5.824;2022-12-05T06:42:27;101770.0;;;4.6;93.5
60719;BME280;46567;51.660;5.824;2022-12-05T06:47:27;101770.0;;;4.6;93.5
60719;BME280;46567;51.660;5.824;2022-12-05T06:52:27;101770.0;;;4.7;93.5
60719;BME280;46567;51.660;5.824;2022-12-05T06:57:28;101770.0;;;4.7;93.5
60719;BME280;46567;51.660;5.824;2022-12-05T07:02:27;101770.0;;;4.7;93.5
60719;BME280;46567;51.660;5.824;2022-12-05T07:07:28;101770.0;;;4.7;93.5
60719;BME280;46567;51.660;5.824;2022-12-05T07:12:27;101770.0;;;4.7;93.5
60719;BME280;46567;51.660;5.824;2022-12-05T07:17:27;101790.0;;;4.7;93.5
60719;BME280;46567;51.660;5.824;2022-12-05T07:27:27;101790.0;;;4.8;93.5
60719;BME280;46567;51.660;5.824;2022-12-05T07:32:31;101800.0;;;4.8;93.5
60719;BME280;46567;51.660;5.824;2022-12-05T07:37:27;101790.0;;;4.7;93.5
60719;BME280;46567;51.660;5.824;2022-12-05T07:47:28;101810.0;;;4.8;94.0
60719;BME280;46567;51.660;5.824;2022-12-05T07:52:28;101800.0;;;4.8;93.5
60719;BME280;46567;51.660;5.824;2022-12-05T08:02:27;101810.0;;;4.8;94.0
60719;BME280;46567;51.660;5.824;2022-12-05T08:07:27;101820.0;;;4.8;94.0
60719;BME280;46567;51.660;5.824;2022-12-05T08:12:40;101830.0;;;4.8;94.0
60719;BME280;46567;51.660;5.824;2022-12-05T08:17:27;101830.0;;;4.8;94.0
60719;BME280;46567;51.660;5.824;2022-12-05T08:22:27;101840.0;;;4.8;94.0
60719;BME280;46567;51.660;5.824;2022-12-05T08:27:27;101840.0;;;4.8;94.0
60719;BME280;46567;51.660;5.824;2022-12-05T08:32:27;101840.0;;;4.8;94.0
60719;BME280;46567;51.660;5.824;2022-12-05T08:37:27;101850.0;;;4.9;94.5
60719;BME280;46567;51.660;5.824;2022-12-05T08:52:27;101850.0;;;4.9;94.0
60719;BME280;46567;51.660;5.824;2022-12-05T08:57:27;101860.0;;;4.9;94.0
60719;BME280;46567;51.660;5.824;2022-12-05T09:02:27;101860.0;;;4.9;94.0
60719;BME280;46567;51.660;5.824;2022-12-05T09:07:27;101870.0;;;4.9;94.0
60719;BME280;46567;51.660;5.824;2022-12-05T09:12:27;101880.0;;;4.9;94.0
60719;BME280;46567;51.660;5.824;2022-12-05T09:22:27;101880.0;;;4.8;93.5
60719;BME280;46567;51.660;5.824;2022-12-05T09:27:27;101890.0;;;4.8;93.5
60719;BME280;46567;51.660;5.824;2022-12-05T09:32:27;101890.0;;;4.7;93.5
60719;BME280;46567;51.660;5.824;2022-12-05T09:37:27;101900.0;;;4.7;93.5
60719;BME280;46567;51.660;5.824;2022-12-05T09:52:30;101900.0;;;4.8;94.0
60719;BME280;46567;51.660;5.824;2022-12-05T09:57:34;101900.0;;;4.8;93.5
60719;BME280;46567;51.660;5.824;2022-12-05T10:02:47;101900.0;;;4.9;93.5
60719;BME280;46567;51.660;5.824;2022-12-05T10:07:39;101900.0;;;4.9;93.5
60719;BME280;46567;51.660;5.824;2022-12-05T10:13:22;101900.0;;;4.9;93.5
60719;BME280;46567;51.660;5.824;2022-12-05T10:17:37;101900.0;;;4.9;93.5
60719;BME280;46567;51.660;5.824;2022-12-05T10:22:42;101900.0;;;4.9;93.5
60719;BME280;46567;51.660;5.824;2022-12-05T10:27:36;101900.0;;;5.0;93.5
60719;BME280;46567;51.660;5.824;2022-12-05T10:32:30;101900.0;;;5.0;93.0
60719;BME280;46567;51.660;5.824;2022-12-05T10:37:27;101900.0;;;4.9;93.0
60719;BME280;46567;51.660;5.824;2022-12-05T10:42:32;101900.0;;;5.0;93.0
60719;BME280;46567;51.660;5.824;2022-12-05T10:52:29;101910.0;;;5.0;93.0
60719;BME280;46567;51.660;5.824;2022-12-05T10:57:28;101910.0;;;5.0;93.0
60719;BME280;46567;51.660;5.824;2022-12-05T11:02:32;101890.0;;;5.0;93.0
60719;BME280;46567;51.660;5.824;2022-12-05T11:07:34;101890.0;;;5.0;93.0
60719;BME280;46567;51.660;5.824;2022-12-05T11:12:36;101880.0;;;5.0;93.0
60719;BME280;46567;51.660;5.824;2022-12-05T11:17:33;101880.0;;;5.0;93.0
60719;BME280;46567;51.660;5.824;2022-12-05T11:22:30;101880.0;;;5.1;93.0
60719;BME280;46567;51.660;5.824;2022-12-05T11:27:31;101870.0;;;5.1;93.5
60719;BME280;46567;51.660;5.824;2022-12-05T11:37:39;101890.0;;;5.2;93.5
60719;BME280;46567;51.660;5.824;2022-12-05T11:43:00;101890.0;;;5.2;93.5
60719;BME280;46567;51.660;5.824;2022-12-05T11:49:53;101880.0;;;5.3;93.5
60719;BME280;46567;51.660;5.824;2022-12-05T11:54:53;101890.0;;;5.3;93.5
60719;BME280;46567;51.660;5.824;2022-12-05T11:59:44;101880.0;;;5.3;93.5
60719;BME280;46567;51.660;5.824;2022-12-05T12:04:53;101870.0;;;5.4;93.5
60719;BME280;46567;51.660;5.824;2022-12-05T12:09:46;101870.0;;;5.4;93.5
60719;BME280;46567;51.660;5.824;2022-12-05T12:15:02;101870.0;;;5.4;93.5
60719;BME280;46567;51.660;5.824;2022-12-05T12:20:17;101870.0;;;5.4;93.0
60719;BME280;46567;51.660;5.824;2022-12-05T12:26:12;101880.0;;;5.4;93.0
60719;BME280;46567;51.660;5.824;2022-12-05T12:31:33;101870.0;;;5.4;93.0
60719;BME280;46567;51.660;5.824;2022-12-05T12:36:35;101870.0;;;5.4;93.0
60719;BME280;46567;51.660;5.824;2022-12-05T12:41:14;101880.0;;;5.4;93.0
60719;BME280;46567;51.660;5.824;2022-12-05T12:46:41;101860.0;;;5.4;93.0
60719;BME280;46567;51.660;5.824;2022-12-05T12:50:54;101860.0;;;5.4;93.0
60719;BME280;46567;51.660;5.824;2022-12-05T12:52:33;101850.0;;;5.4;93.0
60719;BME280;46567;51.660;5.824;2022-12-05T12:58:28;101850.0;;;5.5;93.0
60719;BME280;46567;51.660;5.824;2022-12-05T13:02:53;101850.0;;;5.5;93.0
60719;BME280;46567;51.660;5.824;2022-12-05T13:07:37;101850.0;;;5.6;93.0
60719;BME280;46567;51.660;5.824;2022-12-05T13:12:30;101850.0;;;5.6;93.0
60719;BME280;46567;51.660;5.824;2022-12-05T13:17:28;101840.0;;;5.6;93.0
60719;BME280;46567;51.660;5.824;2022-12-05T13:22:27;101830.0;;;5.6;93.0
60719;BME280;46567;51.660;5.824;2022-12-05T13:27:27;101830.0;;;5.7;93.0
60719;BME280;46567;51.660;5.824;2022-12-05T13:32:37;101830.0;;;5.7;93.0
60719;BME280;46567;51.660;5.824;2022-12-05T13:37:28;101830.0;;;5.8;93.0
60719;BME280;46567;51.660;5.824;2022-12-05T13:42:29;101830.0;;;5.8;93.0
60719;BME280;46567;51.660;5.824;2022-12-05T13:47:44;101840.0;;;5.8;93.0
60719;BME280;46567;51.660;5.824;2022-12-05T13:52:29;101840.0;;;5.8;93.0
60719;BME280;46567;51.660;5.824;2022-12-05T13:57:52;101840.0;;;5.8;93.0
60719;BME280;46567;51.660;5.824;2022-12-05T14:02:46;101840.0;;;5.9;93.0
60719;BME280;46567;51.660;5.824;2022-12-05T14:07:38;101840.0;;;5.9;93.0
60719;BME280;46567;51.660;5.824;2022-12-05T14:12:51;101850.0;;;5.9;93.0
60719;BME280;46567;51.660;5.824;2022-12-05T14:17:29;101850.0;;;5.9;93.0
60719;BME280;46567;51.660;5.824;2022-12-05T14:22:45;101850.0;;;5.9;93.0
60719;BME280;46567;51.660;5.824;2022-12-05T14:32:41;101850.0;;;5.9;93.0
60719;BME280;46567;51.660;5.824;2022-12-05T14:37:35;101850.0;;;5.9;93.0
60719;BME280;46567;51.660;5.824;2022-12-05T14:42:39;101850.0;;;5.9;93.0
60719;BME280;46567;51.660;5.824;2022-12-05T14:57:29;101860.0;;;5.9;93.0
60719;BME280;46567;51.660;5.824;2022-12-05T15:02:30;101860.0;;;5.9;93.0
60719;BME280;46567;51.660;5.824;2022-12-05T15:07:41;101860.0;;;5.8;93.5
60719;BME280;46567;51.660;5.824;2022-12-05T15:12:35;101870.0;;;5.8;93.5
60719;BME280;46567;51.660;5.824;2022-12-05T15:17:34;101860.0;;;5.8;93.5
60719;BME280;46567;51.660;5.824;2022-12-05T15:22:41;101860.0;;;5.8;93.5
60719;BME280;46567;51.660;5.824;2022-12-05T15:27:27;101860.0;;;5.8;93.5
60719;BME280;46567;51.660;5.824;2022-12-05T15:32:27;101870.0;;;5.8;93.5
60719;BME280;46567;51.660;5.824;2022-12-05T15:37:45;101870.0;;;5.8;93.5
60719;BME280;46567;51.660;5.824;2022-12-05T15:42:31;101870.0;;;5.8;93.5
60719;BME280;46567;51.660;5.824;2022-12-05T15:47:27;101880.0;;;5.8;93.5
60719;BME280;46567;51.660;5.824;2022-12-05T15:57:36;101880.0;;;5.8;93.5
60719;BME280;46567;51.660;5.824;2022-12-05T16:02:43;101870.0;;;5.8;93.5
60719;BME280;46567;51.660;5.824;2022-12-05T16:07:30;101870.0;;;5.8;93.5
60719;BME280;46567;51.660;5.824;2022-12-05T16:22:27;101880.0;;;5.8;93.5
60719;BME280;46567;51.660;5.824;2022-12-05T16:27:28;101880.0;;;5.8;93.5
60719;BME280;46567;51.660;5.824;2022-12-05T16:32:27;101890.0;;;5.8;94.0
60719;BME280;46567;51.660;5.824;2022-12-05T16:37:29;101880.0;;;5.8;94.0
60719;BME280;46567;51.660;5.824;2022-12-05T16:42:28;101890.0;;;5.8;94.0
60719;BME280;46567;51.660;5.824;2022-12-05T16:48:00;101890.0;;;5.8;94.0
60719;BME280;46567;51.660;5.824;2022-12-05T16:52:29;101890.0;;;5.8;94.0
60719;BME280;46567;51.660;5.824;2022-12-05T16:57:27;101890.0;;;5.8;94.0
60719;BME280;46567;51.660;5.824;2022-12-05T17:02:27;101890.0;;;5.9;94.0
60719;BME280;46567;51.660;5.824;2022-12-05T17:07:27;101890.0;;;5.9;94.0
60719;BME280;46567;51.660;5.824;2022-12-05T17:12:27;101900.0;;;5.9;94.0
60719;BME280;46567;51.660;5.824;2022-12-05T17:17:27;101890.0;;;5.9;94.0
60719;BME280;46567;51.660;5.824;2022-12-05T17:22:27;101890.0;;;5.9;94.0
60719;BME280;46567;51.660;5.824;2022-12-05T17:27:27;101910.0;;;6.0;94.5
60719;BME280;46567;51.660;5.824;2022-12-05T17:32:27;101900.0;;;6.0;94.5
60719;BME280;46567;51.660;5.824;2022-12-05T17:37:27;101890.0;;;6.0;94.5
60719;BME280;46567;51.660;5.824;2022-12-05T17:42:27;101890.0;;;6.0;94.5
60719;BME280;46567;51.660;5.824;2022-12-05T17:47:27;101890.0;;;6.1;94.5
60719;BME280;46567;51.660;5.824;2022-12-05T17:52:28;101900.0;;;6.1;94.5
60719;BME280;46567;51.660;5.824;2022-12-05T17:57:27;101900.0;;;6.1;94.5
60719;BME280;46567;51.660;5.824;2022-12-05T18:02:27;101910.0;;;6.2;94.5
60719;BME280;46567;51.660;5.824;2022-12-05T18:12:27;101920.0;;;6.2;94.5
60719;BME280;46567;51.660;5.824;2022-12-05T18:17:27;101920.0;;;6.2;94.5
60719;BME280;46567;51.660;5.824;2022-12-05T18:22:27;101920.0;;;6.2;94.5
60719;BME280;46567;51.660;5.824;2022-12-05T18:32:28;101920.0;;;6.2;94.5
60719;BME280;46567;51.660;5.824;2022-12-05T18:37:28;101930.0;;;6.3;94.5
60719;BME280;46567;51.660;5.824;2022-12-05T18:42:27;101930.0;;;6.3;94.5
60719;BME280;46567;51.660;5.824;2022-12-05T18:47:27;101940.0;;;6.3;94.5
60719;BME280;46567;51.660;5.824;2022-12-05T18:52:27;101930.0;;;6.3;94.5
60719;BME280;46567;51.660;5.824;2022-12-05T18:57:27;101920.0;;;6.3;94.5
60719;BME280;46567;51.660;5.824;2022-12-05T19:02:41;101930.0;;;6.3;94.5
60719;BME280;46567;51.660;5.824;2022-12-05T19:07:27;101930.0;;;6.3;94.5
60719;BME280;46567;51.660;5.824;2022-12-05T19:12:27;101940.0;;;6.3;94.5
60719;BME280;46567;51.660;5.824;2022-12-05T19:17:27;101950.0;;;6.3;94.5
60719;BME280;46567;51.660;5.824;2022-12-05T19:22:27;101950.0;;;6.3;94.5
60719;BME280;46567;51.660;5.824;2022-12-05T19:27:27;101950.0;;;6.3;95.0
60719;BME280;46567;51.660;5.824;2022-12-05T19:32:27;101960.0;;;6.3;95.0
60719;BME280;46567;51.660;5.824;2022-12-05T19:37:27;101960.0;;;6.3;95.0
60719;BME280;46567;51.660;5.824;2022-12-05T19:42:27;101960.0;;;6.3;95.0
60719;BME280;46567;51.660;5.824;2022-12-05T19:47:27;101960.0;;;6.3;95.0
60719;BME280;46567;51.660;5.824;2022-12-05T19:52:27;101960.0;;;6.3;95.0
60719;BME280;46567;51.660;5.824;2022-12-05T19:57:27;101960.0;;;6.4;95.0
60719;BME280;46567;51.660;5.824;2022-12-05T20:02:27;101960.0;;;6.4;95.0
60719;BME280;46567;51.660;5.824;2022-12-05T20:07:27;101960.0;;;6.4;95.0
60719;BME280;46567;51.660;5.824;2022-12-05T20:12:27;101960.0;;;6.4;95.0
60719;BME280;46567;51.660;5.824;2022-12-05T20:17:27;101960.0;;;6.4;95.0
60719;BME280;46567;51.660;5.824;2022-12-05T20:22:27;101970.0;;;6.4;95.0
60719;BME280;46567;51.660;5.824;2022-12-05T20:27:27;101970.0;;;6.4;95.0
60719;BME280;46567;51.660;5.824;2022-12-05T20:37:27;101960.0;;;6.4;95.5
60719;BME280;46567;51.660;5.824;2022-12-05T20:42:27;101960.0;;;6.4;95.5
60719;BME280;46567;51.660;5.824;2022-12-05T20:47:27;101960.0;;;6.4;95.5
60719;BME280;46567;51.660;5.824;2022-12-05T20:52:27;101960.0;;;6.4;95.5
60719;BME280;46567;51.660;5.824;2022-12-05T20:57:27;101960.0;;;6.4;95.5
60719;BME280;46567;51.660;5.824;2022-12-05T21:02:27;101960.0;;;6.5;95.5
60719;BME280;46567;51.660;5.824;2022-12-05T21:07:27;101960.0;;;6.5;95.5
60719;BME280;46567;51.660;5.824;2022-12-05T21:12:27;101950.0;;;6.4;95.5
60719;BME280;46567;51.660;5.824;2022-12-05T21:17:27;101960.0;;;6.4;95.5
60719;BME280;46567;51.660;5.824;2022-12-05T21:22:27;101960.0;;;6.4;95.5
60719;BME280;46567;51.660;5.824;2022-12-05T21:27:27;101960.0;;;6.4;95.5
60719;BME280;46567;51.660;5.824;2022-12-05T21:32:27;101950.0;;;6.4;96.0
60719;BME280;46567;51.660;5.824;2022-12-05T21:37:28;101950.0;;;6.5;96.0
60719;BME280;46567;51.660;5.824;2022-12-05T21:42:28;101950.0;;;6.5;95.5
60719;BME280;46567;51.660;5.824;2022-12-05T21:47:28;101950.0;;;6.5;96.0
60719;BME280;46567;51.660;5.824;2022-12-05T21:52:27;101960.0;;;6.4;95.5
60719;BME280;46567;51.660;5.824;2022-12-05T21:57:28;101960.0;;;6.4;95.5
60719;BME280;46567;51.660;5.824;2022-12-05T22:02:27;101970.0;;;6.4;96.0
60719;BME280;46567;51.660;5.824;2022-12-05T22:07:27;101970.0;;;6.4;96.0
60719;BME280;46567;51.660;5.824;2022-12-05T22:12:27;101960.0;;;6.4;96.0
60719;BME280;46567;51.660;5.824;2022-12-05T22:17:27;101970.0;;;6.4;96.0
60719;BME280;46567;51.660;5.824;2022-12-05T22:22:28;101970.0;;;6.4;96.0
60719;BME280;46567;51.660;5.824;2022-12-05T22:27:28;101970.0;;;6.4;96.0
60719;BME280;46567;51.660;5.824;2022-12-05T22:37:27;101970.0;;;6.4;96.0
60719;BME280;46567;51.660;5.824;2022-12-05T22:47:27;101970.0;;;6.4;96.0
60719;BME280;46567;51.660;5.824;2022-12-05T22:52:27;101960.0;;;6.4;96.0
60719;BME280;46567;51.660;5.824;2022-12-05T22:57:27;101960.0;;;6.4;96.0
60719;BME280;46567;51.660;5.824;2022-12-05T23:02:27;101970.0;;;6.4;96.0
60719;BME280;46567;51.660;5.824;2022-12-05T23:07:27;101960.0;;;6.4;96.0
60719;BME280;46567;51.660;5.824;2022-12-05T23:12:27;101960.0;;;6.4;96.0
60719;BME280;46567;51.660;5.824;2022-12-05T23:17:27;101960.0;;;6.4;96.0
60719;BME280;46567;51.660;5.824;2022-12-05T23:22:28;101960.0;;;6.4;96.0
60719;BME280;46567;51.660;5.824;2022-12-05T23:27:27;101950.0;;;6.4;96.0
60719;BME280;46567;51.660;5.824;2022-12-05T23:32:27;101960.0;;;6.3;96.0
60719;BME280;46567;51.660;5.824;2022-12-05T23:37:27;101960.0;;;6.3;96.0
60719;BME280;46567;51.660;5.824;2022-12-05T23:42:28;101950.0;;;6.3;96.0
60719;BME280;46567;51.660;5.824;2022-12-05T23:47:28;101950.0;;;6.3;96.0
60719;BME280;46567;51.660;5.824;2022-12-05T23:52:27;101960.0;;;6.3;96.0
60719;BME280;46567;51.660;5.824;2022-12-05T23:57:27;101950.0;;;6.3;96.0
